Time;durP1;ratioP1;P1;durP2;ratioP2;P2;SDS_P1;SDS_P2;PMS_P1;PMS_P2;Temp;Humidity;BMP_temperature;BMP_pressure;BME280_temperature;BME280_humidity;BME280_pressure;Samples;Min_cycle;Max_cycle;Signal;HPM_P1;HPM_P2
2021/07/28 00:02:23;;;;;;;10.10;7.37;;;;;16.20;100476.00;;;;10416566;28;20214;-81
2021/07/28 00:07:25;;;;;;;8.80;7.63;;;;;16.20;100470.00;;;;10445869;28;20193;-81
2021/07/28 00:12:27;;;;;;;8.57;7.20;;;;;16.10;100463.00;;;;10459141;28;20182;-81
2021/07/28 00:17:30;;;;;;;9.90;7.13;;;;;16.10;100451.00;;;;10457137;28;20197;-81
2021/07/28 00:27:58;;;;;;;11.67;7.93;;;;;16.10;100440.00;;;;10416829;28;20553;-81
2021/07/28 00:33:00;;;;;;;11.67;7.53;;;;;16.10;100444.00;;;;10438250;28;20218;-81
2021/07/28 00:38:06;;;;;;;11.23;7.93;;;;;16.00;100448.00;;;;10457104;28;20228;-81
2021/07/28 00:43:14;;;;;;;11.37;8.10;;;;;16.10;100445.00;;;;10466543;28;20186;-81
2021/07/28 00:48:16;;;;;;;10.67;8.83;;;;;16.30;100449.00;;;;10464959;28;20212;-81
2021/07/28 00:53:18;;;;;;;11.93;8.90;;;;;16.30;100449.00;;;;10464215;28;20204;-81
2021/07/28 00:58:21;;;;;;;11.33;9.33;;;;;16.20;100443.00;;;;10463182;28;20826;-81
2021/07/28 01:03:23;;;;;;;13.10;9.90;;;;;16.20;100439.00;;;;10462123;28;20756;-81
2021/07/28 01:08:25;;;;;;;12.37;9.10;;;;;16.30;100433.00;;;;10476684;28;20220;-82
2021/07/28 01:13:30;;;;;;;13.20;9.37;;;;;16.40;100435.00;;;;10481069;28;20224;-82
2021/07/28 01:18:34;;;;;;;11.87;9.13;;;;;16.50;100437.00;;;;10464017;28;20271;-82
2021/07/28 01:23:38;;;;;;;14.90;10.60;;;;;16.60;100430.00;;;;10444977;28;20209;-82
2021/07/28 01:28:40;;;;;;;13.97;9.83;;;;;16.60;100424.00;;;;10420192;28;20191;-82
2021/07/28 01:33:44;;;;;;;11.73;9.57;;;;;16.70;100419.00;;;;10452648;28;20750;-81
2021/07/28 01:38:46;;;;;;;16.30;11.03;;;;;16.70;100429.00;;;;10462604;28;20212;-82
2021/07/28 01:43:52;;;;;;;11.57;9.73;;;;;16.70;100426.00;;;;10462733;28;20198;-82
2021/07/28 01:48:54;;;;;;;16.33;11.20;;;;;16.70;100429.00;;;;10447068;28;20190;-81
2021/07/28 01:53:56;;;;;;;13.52;9.60;;;;;16.80;100423.00;;;;10425622;28;20750;-82
2021/07/28 01:59:09;;;;;;;15.10;10.00;;;;;16.80;100416.00;;;;10438937;28;20206;-82
2021/07/28 02:04:11;;;;;;;17.52;9.60;;;;;16.80;100418.00;;;;10421249;28;20616;-81
2021/07/28 02:09:13;;;;;;;15.77;9.20;;;;;16.90;100419.00;;;;10438045;28;20281;-82
2021/07/28 02:14:15;;;;;;;13.70;9.10;;;;;17.00;100422.00;;;;10424914;28;20236;-81
2021/07/28 02:19:17;;;;;;;13.88;9.02;;;;;17.10;100428.00;;;;10440969;28;20206;-82
2021/07/28 02:24:19;;;;;;;12.82;9.55;;;;;17.10;100420.00;;;;10461443;28;20196;-82
2021/07/28 02:29:21;;;;;;;11.98;9.93;;;;;17.20;100429.00;;;;10487757;28;20197;-82
2021/07/28 02:34:22;;;;;;;16.25;10.52;;;;;17.20;100426.00;;;;10487629;28;20572;-83
2021/07/28 02:39:25;;;;;;;12.18;9.68;;;;;17.30;100416.00;;;;10503985;28;20606;-82
2021/07/28 02:44:26;;;;;;;12.68;9.40;;;;;17.30;100413.00;;;;10486754;28;20205;-81
2021/07/28 02:49:28;;;;;;;13.82;9.77;;;;;17.40;100421.00;;;;10463308;28;20189;-81
2021/07/28 02:54:30;;;;;;;13.75;10.10;;;;;17.40;100417.00;;;;10459379;28;20210;-82
2021/07/28 02:59:32;;;;;;;10.68;8.73;;;;;17.50;100424.00;;;;10419349;28;20217;-82
2021/07/28 03:04:35;;;;;;;13.52;10.30;;;;;17.50;100422.00;;;;10452475;28;20205;-82
2021/07/28 03:09:37;;;;;;;14.48;9.15;;;;;17.50;100425.00;;;;10420831;28;20200;-82
2021/07/28 03:14:39;;;;;;;13.05;9.73;;;;;17.60;100430.00;;;;10435118;28;20194;-82
2021/07/28 03:19:41;;;;;;;16.25;9.68;;;;;17.60;100438.00;;;;10460492;28;20202;-82
2021/07/28 03:24:42;;;;;;;13.18;8.93;;;;;17.60;100441.00;;;;10459445;28;20204;-82
2021/07/28 03:29:44;;;;;;;18.95;9.52;;;;;17.60;100437.00;;;;10457759;28;20193;-82
2021/07/28 03:34:46;;;;;;;12.00;8.57;;;;;17.60;100441.00;;;;10459737;28;20224;-82
2021/07/28 03:40:00;;;;;;;12.77;8.48;;;;;17.60;100437.00;;;;10456730;28;20205;-83
2021/07/28 03:45:04;;;;;;;11.95;8.00;;;;;17.60;100445.00;;;;10473830;28;20197;-82
2021/07/28 03:50:06;;;;;;;11.48;7.05;;;;;17.60;100443.00;;;;10471080;28;20190;-83
2021/07/28 03:55:08;;;;;;;9.00;6.60;;;;;17.50;100446.00;;;;10430368;28;20200;-82
2021/07/28 04:00:10;;;;;;;7.10;6.40;;;;;17.40;100439.00;;;;10451444;28;20198;-82
2021/07/28 04:05:13;;;;;;;9.30;6.05;;;;;17.40;100440.00;;;;10418219;28;20195;-82
2021/07/28 04:10:15;;;;;;;7.35;5.32;;;;;17.30;100449.00;;;;10435248;28;20186;-83
2021/07/28 04:15:17;;;;;;;8.50;5.28;;;;;17.20;100442.00;;;;10425575;28;20213;-82
2021/07/28 04:20:19;;;;;;;6.72;5.50;;;;;17.20;100442.00;;;;10451392;28;20206;-82
2021/07/28 04:25:21;;;;;;;10.90;5.88;;;;;17.20;100446.00;;;;10426627;28;20209;-83
2021/07/28 04:30:23;;;;;;;10.40;5.13;;;;;17.10;100452.00;;;;10443356;28;20197;-81
2021/07/28 04:35:25;;;;;;;7.25;4.57;;;;;17.00;100454.00;;;;10442199;28;20218;-82
2021/07/28 04:40:27;;;;;;;9.13;4.60;;;;;16.90;100452.00;;;;10425546;28;20616;-82
2021/07/28 04:45:29;;;;;;;8.52;4.07;;;;;16.90;100457.00;;;;10459526;28;20201;-82
2021/07/28 04:50:31;;;;;;;4.80;4.13;;;;;16.90;100459.00;;;;10481711;28;20185;-82
2021/07/28 04:55:33;;;;;;;9.82;5.22;;;;;16.90;100464.00;;;;10456215;28;20202;-82
2021/07/28 05:00:35;;;;;;;9.90;5.55;;;;;17.10;100462.00;;;;10438215;28;20206;-82
2021/07/28 05:05:37;;;;;;;5.55;4.53;;;;;17.30;100470.00;;;;10454352;28;20221;-82
2021/07/28 05:10:39;;;;;;;10.68;5.07;;;;;17.70;100474.00;;;;10454534;28;20240;-82
2021/07/28 05:15:41;;;;;;;12.00;4.90;;;;;17.70;100477.00;;;;10422769;28;20198;-81
2021/07/28 05:20:43;;;;;;;6.38;4.22;;;;;17.80;100490.00;;;;10443580;28;20293;-81
2021/07/28 05:25:45;;;;;;;10.25;4.55;;;;;18.00;100486.00;;;;10419970;28;20210;-82
2021/07/28 05:30:47;;;;;;;6.88;4.40;;;;;18.20;100495.00;;;;10421436;28;20281;-82
2021/07/28 05:35:49;;;;;;;10.48;4.45;;;;;18.30;100499.00;;;;10444996;28;20214;-82
2021/07/28 05:40:55;;;;;;;10.30;4.50;;;;;18.20;100509.00;;;;10451558;28;20206;-81
2021/07/28 05:45:57;;;;;;;11.70;4.55;;;;;18.70;100505.00;;;;10419152;28;20205;-81
2021/07/28 05:50:59;;;;;;;11.15;4.45;;;;;19.50;100519.00;;;;10458582;28;20217;-81
2021/07/28 05:56:01;;;;;;;9.40;4.53;;;;;20.00;100521.00;;;;10445016;28;20197;-82
2021/07/28 06:01:03;;;;;;;4.22;3.70;;;;;20.70;100530.00;;;;10446379;28;20205;-82
2021/07/28 06:06:05;;;;;;;9.48;4.28;;;;;21.10;100526.00;;;;10460707;28;20200;-82
2021/07/28 06:11:07;;;;;;;8.07;4.10;;;;;21.10;100524.00;;;;10460726;28;20196;-82
2021/07/28 06:16:09;;;;;;;7.40;4.63;;;;;20.90;100525.00;;;;10458741;28;20206;-83
2021/07/28 06:21:11;;;;;;;8.48;5.18;;;;;20.90;100520.00;;;;10458089;28;20262;-82
2021/07/28 06:26:13;;;;;;;10.95;4.32;;;;;21.70;100522.00;;;;10461351;28;20193;-83
2021/07/28 06:31:15;;;;;;;9.68;4.20;;;;;21.40;100523.00;;;;10459660;28;20813;-82
2021/07/28 06:36:17;;;;;;;5.95;3.78;;;;;21.70;100530.00;;;;10457865;28;20217;-82
2021/07/28 06:41:18;;;;;;;6.18;3.80;;;;;21.60;100524.00;;;;10443043;28;20221;-83
2021/07/28 06:46:20;;;;;;;6.35;3.10;;;;;22.10;100511.00;;;;10474009;28;20204;-82
2021/07/28 06:51:22;;;;;;;9.30;3.70;;;;;22.00;100522.00;;;;10450472;28;20715;-82
2021/07/28 06:56:24;;;;;;;10.15;3.10;;;;;23.10;100518.00;;;;10417322;28;20206;-82
2021/07/28 07:01:26;;;;;;;8.85;2.90;;;;;23.60;100517.00;;;;10434287;28;21020;-82
2021/07/28 07:06:28;;;;;;;6.50;3.22;;;;;23.80;100513.00;;;;10443064;28;20292;-82
2021/07/28 07:11:30;;;;;;;5.78;2.53;;;;;24.90;100503.00;;;;10463652;28;20189;-82
2021/07/28 07:16:32;;;;;;;6.80;3.15;;;;;24.90;100514.00;;;;10432754;28;20237;-82
2021/07/28 07:21:34;;;;;;;8.35;2.63;;;;;24.40;100512.00;;;;10416328;28;20857;-83
2021/07/28 07:26:36;;;;;;;5.72;2.50;;;;;23.60;100505.00;;;;10427930;28;20274;-83
2021/07/28 07:31:39;;;;;;;3.97;2.35;;;;;23.20;100518.00;;;;10416450;28;20283;-82
2021/07/28 07:36:41;;;;;;;6.05;2.60;;;;;22.70;100512.00;;;;10400088;28;20188;-83
2021/07/28 07:41:43;;;;;;;5.90;2.45;;;;;23.30;100513.00;;;;10463162;28;20207;-83
2021/07/28 07:46:45;;;;;;;6.30;2.55;;;;;24.20;100515.00;;;;10475394;28;20239;-82
2021/07/28 07:51:47;;;;;;;14.18;2.92;;;;;24.10;100512.00;;;;10424520;28;20593;-83
2021/07/28 07:56:49;;;;;;;8.95;2.33;;;;;23.00;100512.00;;;;10498034;28;20276;-83
2021/07/28 08:01:50;;;;;;;7.18;2.33;;;;;23.90;100508.00;;;;10466641;28;20787;-83
2021/07/28 08:06:52;;;;;;;5.75;2.60;;;;;24.50;100500.00;;;;10444348;28;20198;-82
2021/07/28 08:11:56;;;;;;;5.97;2.35;;;;;24.50;100491.00;;;;10464533;28;20284;-83
2021/07/28 08:16:58;;;;;;;2.50;1.88;;;;;25.00;100498.00;;;;10454901;28;20206;-83
2021/07/28 08:22:00;;;;;;;6.40;2.22;;;;;26.30;100484.00;;;;10460965;28;20206;-82
2021/07/28 08:27:03;;;;;;;4.25;1.70;;;;;27.20;100506.00;;;;10436584;28;20198;-82
2021/07/28 08:32:05;;;;;;;6.13;2.42;;;;;25.60;100508.00;;;;10453706;28;20260;-84
2021/07/28 08:37:27;;;;;;;4.65;1.90;;;;;24.00;100490.00;;;;10443998;28;20279;-83
2021/07/28 08:42:29;;;;;;;8.25;2.60;;;;;25.60;100491.00;;;;10404590;28;20685;-83
2021/07/28 08:47:31;;;;;;;9.07;2.35;;;;;27.00;100488.00;;;;10437461;28;20201;-83
2021/07/28 08:52:34;;;;;;;3.88;2.05;;;;;27.70;100492.00;;;;10446906;28;20193;-83
2021/07/28 08:57:36;;;;;;;7.57;2.25;;;;;28.40;100497.00;;;;10503718;28;20197;-83
2021/07/28 09:02:39;;;;;;;4.55;1.80;;;;;28.90;100509.00;;;;10423393;28;20206;-83
2021/07/28 09:07:41;;;;;;;4.32;2.00;;;;;28.70;100505.00;;;;10453828;28;20201;-84
2021/07/28 09:12:45;;;;;;;4.85;1.90;;;;;29.60;100503.00;;;;10421543;28;20191;-84
2021/07/28 09:17:49;;;;;;;4.45;1.83;;;;;27.40;100517.00;;;;10442578;28;20251;-84
2021/07/28 09:22:51;;;;;;;5.07;1.70;;;;;26.10;100519.00;;;;10419237;28;20210;-83
2021/07/28 09:27:54;;;;;;;5.65;1.75;;;;;25.20;100509.00;;;;10410392;28;20206;-83
2021/07/28 09:33:02;;;;;;;5.80;1.98;;;;;26.70;100505.00;;;;10446550;28;20205;-83
2021/07/28 09:38:04;;;;;;;5.35;2.15;;;;;27.80;100502.00;;;;10445648;28;20247;-83
2021/07/28 09:43:06;;;;;;;5.22;1.98;;;;;27.90;100503.00;;;;10475495;28;20213;-84
2021/07/28 09:48:08;;;;;;;4.22;1.75;;;;;28.30;100516.00;;;;10458402;28;20173;-83
2021/07/28 09:53:10;;;;;;;5.45;1.67;;;;;29.10;100507.00;;;;10447347;28;20294;-83
2021/07/28 09:58:27;;;;;;;6.80;2.10;;;;;29.00;100510.00;;;;10476568;28;20272;-83
2021/07/28 10:03:29;;;;;;;6.05;2.00;;;;;28.20;100502.00;;;;10439547;28;20264;-84
2021/07/28 10:08:31;;;;;;;3.95;1.73;;;;;28.10;100511.00;;;;10416368;28;20244;-83
2021/07/28 10:13:33;;;;;;;3.47;1.65;;;;;27.40;100523.00;;;;10432794;28;20190;-84
2021/07/28 10:18:36;;;;;;;7.63;2.22;;;;;26.00;100517.00;;;;10450425;28;20644;-83
2021/07/28 10:23:42;;;;;;;4.05;2.40;;;;;26.40;100492.00;;;;10416351;28;20210;-82
2021/07/28 10:28:46;;;;;;;4.18;2.38;;;;;27.00;100500.00;;;;10415425;28;20200;-83
2021/07/28 10:33:51;;;;;;;6.30;1.98;;;;;26.20;100512.00;;;;10420008;28;20236;-83
2021/07/28 10:38:56;;;;;;;5.20;2.25;;;;;26.00;100504.00;;;;10472398;28;20182;-83
2021/07/28 10:44:21;;;;;;;5.78;2.05;;;;;25.40;100504.00;;;;10456610;28;20672;-83
2021/07/28 10:49:33;;;;;;;5.50;2.42;;;;;26.10;100497.00;;;;10430739;28;20196;-83
2021/07/28 10:54:51;;;;;;;5.32;2.05;;;;;26.30;100498.00;;;;10421903;28;20202;-83
2021/07/28 10:59:53;;;;;;;5.25;1.80;;;;;27.50;100491.00;;;;10460402;28;20277;-83
2021/07/28 11:05:24;;;;;;;7.13;1.77;;;;;28.60;100494.00;;;;10466597;28;20219;-83
2021/07/28 11:10:26;;;;;;;3.20;1.70;;;;;29.00;100500.00;;;;10456214;28;20209;-83
2021/07/28 11:15:28;;;;;;;3.13;1.80;;;;;28.60;100507.00;;;;10456995;28;20190;-83
2021/07/28 11:20:38;;;;;;;3.03;1.63;;;;;29.90;100483.00;;;;10425641;28;20213;-84
2021/07/28 11:25:39;;;;;;;5.30;2.17;;;;;29.00;100498.00;;;;10402934;28;20194;-83
2021/07/28 11:30:42;;;;;;;5.55;2.03;;;;;29.20;100500.00;;;;10448687;28;20194;-83
2021/07/28 11:35:46;;;;;;;5.35;2.05;;;;;28.50;100501.00;;;;10421273;28;20296;-84
2021/07/28 11:40:51;;;;;;;2.92;1.67;;;;;27.40;100511.00;;;;10433534;28;20242;-84
2021/07/28 11:45:54;;;;;;;6.70;2.10;;;;;25.30;100523.00;;;;10437395;28;20201;-83
2021/07/28 11:51:03;;;;;;;9.38;2.45;;;;;23.20;100548.00;;;;10474343;28;20281;-83
2021/07/28 11:56:08;;;;;;;4.38;2.55;;;;;21.30;100570.00;;;;10450249;28;20217;-84
2021/07/28 12:01:23;;;;;;;5.13;2.25;;;;;21.20;100558.00;;;;10431869;28;20214;-84
2021/07/28 12:06:38;;;;;;;5.15;2.50;;;;;22.10;100554.00;;;;10433617;28;20348;-84
2021/07/28 12:12:03;;;;;;;4.55;2.05;;;;;23.90;100542.00;;;;10416107;28;20205;-84
2021/07/28 12:17:17;;;;;;;7.20;3.10;;;;;25.10;100550.00;;;;10432032;28;20200;-84
2021/07/28 12:22:37;;;;;;;3.28;1.85;;;;;26.10;100554.00;;;;10432501;28;20199;-83
2021/07/28 12:27:55;;;;;;;4.10;1.85;;;;;26.30;100555.00;;;;10449413;28;20225;-84
2021/07/28 12:33:17;;;;;;;5.55;2.13;;;;;25.80;100565.00;;;;10449825;28;20573;-84
2021/07/28 12:38:21;;;;;;;1.45;1.20;;;;;23.50;100583.00;;;;10424221;28;20194;-82
2021/07/28 12:43:25;;;;;;;2.00;1.60;;;;;20.70;100616.00;;;;10444303;28;20296;-82
2021/07/28 12:48:28;;;;;;;2.17;1.30;;;;;19.70;100612.00;;;;10472487;28;20202;-82
2021/07/28 12:53:33;;;;;;;2.75;1.50;;;;;19.50;100619.00;;;;10487978;28;20188;-82
2021/07/28 12:58:35;;;;;;;3.63;1.40;;;;;20.20;100603.00;;;;10501632;28;20185;-82
2021/07/28 13:03:41;;;;;;;1.65;1.55;;;;;20.80;100596.00;;;;10502542;28;20209;-82
2021/07/28 13:08:47;;;;;;;3.15;1.63;;;;;21.60;100598.00;;;;10501270;28;20196;-83
2021/07/28 13:13:49;;;;;;;2.30;1.60;;;;;23.00;100597.00;;;;10513167;28;20185;-83
2021/07/28 13:18:51;;;;;;;2.63;1.40;;;;;24.70;100588.00;;;;10502351;28;20184;-83
2021/07/28 13:23:52;;;;;;;3.92;1.30;;;;;25.00;100604.00;;;;10477788;28;20269;-83
2021/07/28 13:28:54;;;;;;;6.70;1.98;;;;;25.10;100596.00;;;;10478153;28;20194;-83
2021/07/28 13:33:57;;;;;;;3.38;1.63;;;;;25.60;100596.00;;;;10477214;28;20205;-84
2021/07/28 13:38:59;;;;;;;3.25;1.63;;;;;25.80;100598.00;;;;10460084;28;20208;-84
2021/07/28 13:44:01;;;;;;;3.67;2.00;;;;;26.90;100588.00;;;;10461068;28;20303;-83
2021/07/28 13:49:03;;;;;;;4.03;1.75;;;;;27.00;100588.00;;;;10451562;28;20197;-83
2021/07/28 13:54:05;;;;;;;4.88;2.00;;;;;27.60;100579.00;;;;10485564;28;20648;-83
2021/07/28 13:59:07;;;;;;;5.30;2.10;;;;;27.50;100572.00;;;;10484266;28;20203;-83
2021/07/28 14:04:09;;;;;;;7.03;1.88;;;;;27.10;100595.00;;;;10468654;28;20216;-83
2021/07/28 14:09:11;;;;;;;4.82;1.77;;;;;27.70;100583.00;;;;10459287;28;20216;-83
2021/07/28 14:14:13;;;;;;;6.18;2.72;;;;;28.70;100574.00;;;;10460858;28;20284;-83
2021/07/28 14:19:18;;;;;;;4.25;2.17;;;;;30.70;100580.00;;;;10459560;28;20190;-83
2021/07/28 14:24:20;;;;;;;4.03;2.15;;;;;30.30;100571.00;;;;10484076;28;20215;-83
2021/07/28 14:29:22;;;;;;;3.35;1.67;;;;;32.50;100564.00;;;;10516934;28;20201;-83
2021/07/28 14:34:24;;;;;;;4.45;1.90;;;;;30.50;100558.00;;;;10476838;28;20217;-83
2021/07/28 14:39:28;;;;;;;3.40;1.88;;;;;29.20;100573.00;;;;10491069;28;20186;-82
2021/07/28 14:44:29;;;;;;;3.78;1.88;;;;;32.90;100546.00;;;;10457860;28;20221;-83
2021/07/28 14:49:31;;;;;;;5.68;2.03;;;;;31.70;100547.00;;;;10455017;28;20197;-82
2021/07/28 14:54:33;;;;;;;4.13;1.75;;;;;32.10;100545.00;;;;10460473;28;20193;-82
2021/07/28 14:59:35;;;;;;;4.60;2.00;;;;;30.50;100561.00;;;;10514510;28;20667;-83
2021/07/28 15:04:37;;;;;;;3.22;1.52;;;;;27.50;100558.00;;;;10498849;28;20224;-84
2021/07/28 15:09:39;;;;;;;4.13;1.83;;;;;26.90;100558.00;;;;10482885;28;20192;-83
2021/07/28 15:14:41;;;;;;;29.25;3.22;;;;;26.60;100546.00;;;;10482803;28;20197;-83
2021/07/28 15:19:43;;;;;;;8.77;1.88;;;;;27.80;100546.00;;;;10475128;28;20192;-83
2021/07/28 15:24:45;;;;;;;3.83;1.67;;;;;30.30;100551.00;;;;10510887;28;20224;-82
2021/07/28 15:29:47;;;;;;;5.93;2.15;;;;;26.60;100556.00;;;;10499332;28;20238;-83
2021/07/28 15:34:49;;;;;;;5.93;1.92;;;;;26.10;100560.00;;;;10500464;28;20205;-84
2021/07/28 15:40:02;;;;;;;3.83;1.88;;;;;26.00;100562.00;;;;10516889;28;20189;-83
2021/07/28 15:45:07;;;;;;;3.53;1.85;;;;;25.60;100558.00;;;;10516819;28;20726;-84
2021/07/28 15:50:12;;;;;;;6.15;2.20;;;;;25.60;100570.00;;;;10473518;28;20197;-84
2021/07/28 15:55:14;;;;;;;4.53;2.50;;;;;25.00;100561.00;;;;10464793;28;20205;-82
2021/07/28 16:00:16;;;;;;;5.07;1.98;;;;;25.80;100572.00;;;;10497618;28;20195;-83
2021/07/28 16:05:18;;;;;;;3.83;1.98;;;;;24.50;100564.00;;;;10530727;28;20644;-83
2021/07/28 16:10:20;;;;;;;10.05;2.38;;;;;23.70;100571.00;;;;10503132;28;20189;-83
2021/07/28 16:15:31;;;;;;;5.90;1.90;;;;;23.50;100574.00;;;;10531458;28;20186;-83
2021/07/28 16:20:33;;;;;;;5.03;2.20;;;;;23.60;100569.00;;;;10464583;28;20205;-82
2021/07/28 16:25:40;;;;;;;3.35;1.90;;;;;23.70;100565.00;;;;10506990;28;20275;-81
2021/07/28 16:30:42;;;;;;;3.33;2.03;;;;;23.60;100560.00;;;;10506445;28;20192;-82
2021/07/28 16:35:45;;;;;;;4.45;1.98;;;;;23.80;100567.00;;;;10538484;28;20217;-82
2021/07/28 16:40:47;;;;;;;2.75;1.83;;;;;24.10;100561.00;;;;10480898;28;20213;-83
2021/07/28 16:45:49;;;;;;;3.22;1.80;;;;;23.90;100551.00;;;;10481523;28;20206;-82
2021/07/28 16:50:54;;;;;;;3.15;1.90;;;;;23.80;100549.00;;;;10477188;28;20184;-83
2021/07/28 16:55:56;;;;;;;2.03;1.80;;;;;23.20;100546.00;;;;10505389;28;20645;-82
2021/07/28 17:00:58;;;;;;;4.35;2.03;;;;;22.70;100550.00;;;;10520501;28;20239;-83
2021/07/28 17:06:00;;;;;;;3.78;1.80;;;;;23.00;100566.00;;;;10487784;28;20203;-82
2021/07/28 17:11:02;;;;;;;3.03;1.60;;;;;22.80;100556.00;;;;10504221;28;20195;-83
2021/07/28 17:16:07;;;;;;;2.45;1.65;;;;;22.40;100559.00;;;;10497774;28;20199;-82
2021/07/28 17:21:09;;;;;;;2.92;1.92;;;;;22.30;100553.00;;;;10461322;28;20308;-82
2021/07/28 17:26:11;;;;;;;2.65;1.95;;;;;22.20;100553.00;;;;10495174;28;20199;-82
2021/07/28 17:31:13;;;;;;;3.70;2.30;;;;;22.00;100544.00;;;;10504335;28;20189;-82
2021/07/28 17:36:15;;;;;;;1.73;1.63;;;;;21.70;100545.00;;;;10486965;28;20213;-82
2021/07/28 17:41:17;;;;;;;3.05;1.92;;;;;21.70;100547.00;;;;10461662;28;20312;-82
2021/07/28 17:46:19;;;;;;;2.85;1.70;;;;;21.50;100545.00;;;;10488863;28;20660;-82
2021/07/28 17:51:22;;;;;;;1.83;1.52;;;;;21.20;100537.00;;;;10494200;28;20182;-81
2021/07/28 17:56:24;;;;;;;4.30;2.05;;;;;20.90;100531.00;;;;10495209;28;20197;-81
2021/07/28 18:01:26;;;;;;;4.70;1.88;;;;;21.00;100532.00;;;;10477019;28;20232;-82
2021/07/28 18:06:43;;;;;;;2.33;2.13;;;;;21.00;100525.00;;;;10461083;28;20197;-83
2021/07/28 18:11:45;;;;;;;3.90;1.77;;;;;20.90;100517.00;;;;10485185;28;20297;-82
2021/07/28 18:16:48;;;;;;;3.67;2.60;;;;;20.80;100523.00;;;;10481823;28;20196;-82
2021/07/28 18:21:50;;;;;;;3.38;1.80;;;;;20.60;100522.00;;;;10477352;28;20259;-82
2021/07/28 18:26:53;;;;;;;1.90;1.70;;;;;20.40;100522.00;;;;10463644;28;20637;-82
2021/07/28 18:31:58;;;;;;;3.75;2.15;;;;;20.30;100527.00;;;;10459314;28;20285;-82
2021/07/28 18:37:01;;;;;;;5.10;2.20;;;;;19.70;100525.00;;;;10477243;28;20177;-82
2021/07/28 18:42:03;;;;;;;4.53;2.60;;;;;18.90;100532.00;;;;10475419;28;20213;-82
2021/07/28 18:47:05;;;;;;;4.53;2.40;;;;;18.60;100538.00;;;;10475203;28;20204;-83
2021/07/28 18:52:07;;;;;;;2.88;2.58;;;;;18.60;100550.00;;;;10492521;28;20186;-83
2021/07/28 18:57:09;;;;;;;2.97;2.58;;;;;18.50;100566.00;;;;10462857;28;20206;-81
2021/07/28 19:02:11;;;;;;;4.72;3.05;;;;;18.30;100557.00;;;;10519610;28;20209;-82
2021/07/28 19:07:14;;;;;;;5.72;2.58;;;;;18.30;100558.00;;;;10488195;28;20759;-82
2021/07/28 19:12:16;;;;;;;2.60;2.22;;;;;18.40;100558.00;;;;10502519;28;20192;-82
2021/07/28 19:17:18;;;;;;;3.95;2.58;;;;;18.40;100561.00;;;;10497104;28;20296;-82
2021/07/28 19:22:22;;;;;;;5.90;2.15;;;;;18.40;100554.00;;;;10502459;28;20676;-82
2021/07/28 19:27:23;;;;;;;5.10;2.58;;;;;18.40;100560.00;;;;10478209;28;20193;-82
2021/07/28 19:32:26;;;;;;;7.68;2.55;;;;;18.40;100568.00;;;;10460544;28;20312;-82
2021/07/28 19:37:28;;;;;;;4.45;2.38;;;;;18.40;100564.00;;;;10459671;28;20193;-82
2021/07/28 19:42:36;;;;;;;3.55;2.30;;;;;18.40;100575.00;;;;10476399;28;20221;-82
2021/07/28 19:47:38;;;;;;;4.22;2.35;;;;;18.30;100572.00;;;;10474390;28;20675;-81
2021/07/28 19:52:43;;;;;;;2.38;2.17;;;;;18.30;100591.00;;;;10477625;28;20226;-81
2021/07/28 19:57:45;;;;;;;3.92;2.38;;;;;18.30;100596.00;;;;10533638;28;20200;-82
2021/07/28 20:02:47;;;;;;;3.00;2.38;;;;;18.30;100601.00;;;;10515953;28;20209;-81
2021/07/28 20:07:49;;;;;;;4.93;2.10;;;;;18.20;100596.00;;;;10499210;28;20197;-82
2021/07/28 20:12:51;;;;;;;2.53;2.33;;;;;18.20;100606.00;;;;10515220;28;20723;-81
2021/07/28 20:17:55;;;;;;;3.05;2.05;;;;;18.10;100600.00;;;;10522826;28;20263;-81
2021/07/28 20:22:58;;;;;;;4.47;2.15;;;;;18.00;100594.00;;;;10510030;28;20213;-81
2021/07/28 20:28:00;;;;;;;3.20;2.30;;;;;18.10;100604.00;;;;10489457;28;20185;-82
2021/07/28 20:33:09;;;;;;;4.85;2.50;;;;;18.00;100603.00;;;;10473438;28;20668;-81
2021/07/28 20:38:11;;;;;;;4.35;2.45;;;;;17.90;100601.00;;;;10456701;28;20220;-81
2021/07/28 20:43:13;;;;;;;4.63;2.30;;;;;17.70;100607.00;;;;10456756;28;20235;-82
2021/07/28 20:48:15;;;;;;;6.07;2.17;;;;;17.50;100605.00;;;;10498469;28;20216;-81
2021/07/28 20:53:17;;;;;;;4.50;2.70;;;;;17.50;100601.00;;;;10466530;28;20532;-81
2021/07/28 20:58:19;;;;;;;5.15;2.35;;;;;17.50;100608.00;;;;10505356;28;20199;-81
2021/07/28 21:03:21;;;;;;;3.05;1.90;;;;;17.60;100603.00;;;;10522308;28;20238;-82
2021/07/28 21:08:23;;;;;;;3.65;2.22;;;;;17.60;100606.00;;;;10537399;28;20189;-81
2021/07/28 21:13:24;;;;;;;4.03;2.03;;;;;17.70;100598.00;;;;10520870;28;20185;-81
2021/07/28 21:18:26;;;;;;;3.90;1.70;;;;;17.70;100598.00;;;;10474877;28;20191;-80
2021/07/28 21:23:30;;;;;;;3.03;2.10;;;;;17.70;100603.00;;;;10479187;28;20695;-82
2021/07/28 21:28:32;;;;;;;3.65;1.90;;;;;17.70;100604.00;;;;10462176;28;20193;-82
2021/07/28 21:33:35;;;;;;;4.22;1.85;;;;;17.70;100601.00;;;;10478342;28;20209;-81
2021/07/28 21:38:38;;;;;;;6.93;1.83;;;;;17.70;100595.00;;;;10478428;28;20193;-82
2021/07/28 21:43:41;;;;;;;3.28;1.88;;;;;17.70;100596.00;;;;10463445;28;20675;-82
2021/07/28 21:48:43;;;;;;;4.97;2.35;;;;;17.50;100590.00;;;;10519670;28;20279;-82
2021/07/28 21:53:47;;;;;;;3.75;1.65;;;;;17.50;100586.00;;;;10490453;28;20208;-82
2021/07/28 21:59:08;;;;;;;2.08;1.70;;;;;17.60;100580.00;;;;10467162;28;20194;-82
2021/07/28 22:04:11;;;;;;;1.73;1.53;;;;;17.60;100574.00;;;;10475780;28;20274;-82
2021/07/28 22:09:13;;;;;;;4.28;1.88;;;;;17.60;100577.00;;;;10461480;28;20200;-81
2021/07/28 22:14:15;;;;;;;5.35;2.30;;;;;17.60;100576.00;;;;10476672;28;20196;-82
2021/07/28 22:19:17;;;;;;;4.18;2.25;;;;;17.50;100568.00;;;;10461888;28;20225;-82
2021/07/28 22:24:19;;;;;;;3.35;1.67;;;;;17.50;100565.00;;;;10495110;28;20711;-82
2021/07/28 22:29:21;;;;;;;3.92;1.88;;;;;17.50;100561.00;;;;10475991;28;20201;-81
2021/07/28 22:34:24;;;;;;;6.68;2.03;;;;;17.50;100563.00;;;;10505576;28;20223;-82
2021/07/28 22:39:26;;;;;;;3.15;1.90;;;;;17.50;100568.00;;;;10499442;28;20189;-81
2021/07/28 22:44:28;;;;;;;3.55;1.65;;;;;17.50;100566.00;;;;10524111;28;20735;-81
2021/07/28 22:54:51;;;;;;;8.20;1.92;;;;;17.30;100563.00;;;;10456858;28;20291;-82
2021/07/28 23:10:27;;;;;;;4.72;1.80;;;;;17.10;100572.00;;;;10458530;28;20185;-81
2021/07/28 23:15:29;;;;;;;4.97;2.42;;;;;17.00;100568.00;;;;10457168;28;20641;-82
2021/07/28 23:20:32;;;;;;;2.78;1.70;;;;;16.90;100569.00;;;;10491195;28;20199;-81
2021/07/28 23:25:33;;;;;;;7.25;1.95;;;;;16.80;100573.00;;;;10498360;28;20283;-81
2021/07/28 23:30:35;;;;;;;4.35;1.75;;;;;16.70;100567.00;;;;10514587;28;20197;-81
2021/07/28 23:35:39;;;;;;;7.22;2.30;;;;;16.80;100570.00;;;;10498213;28;20209;-81
2021/07/28 23:40:41;;;;;;;6.03;1.80;;;;;16.90;100561.00;;;;10515720;28;20193;-81
2021/07/28 23:45:42;;;;;;;6.03;1.90;;;;;17.00;100560.00;;;;10498888;28;20221;-81
2021/07/28 23:50:44;;;;;;;4.85;2.03;;;;;17.00;100552.00;;;;10511817;28;20754;-82
2021/07/28 23:55:49;;;;;;;10.90;2.55;;;;;17.10;100561.00;;;;10491216;28;20261;-80
